sensor_id;sensor_type;location;lat;lon;timestamp;P1;durP1;ratioP1;P2;durP2;ratioP2
14241;SDS011;7205;50.864;12.766;2023-04-03T00:02:10;2.93;;;1.27;;
14241;SDS011;7205;50.864;12.766;2023-04-03T00:04:37;2.03;;;1.37;;
14241;SDS011;7205;50.864;12.766;2023-04-03T00:07:03;3.37;;;0.90;;
14241;SDS011;7205;50.864;12.766;2023-04-03T00:09:30;1.87;;;1.03;;
14241;SDS011;7205;50.864;12.766;2023-04-03T00:11:57;1.17;;;1.00;;
14241;SDS011;7205;50.864;12.766;2023-04-03T00:14:24;1.20;;;1.00;;
14241;SDS011;7205;50.864;12.766;2023-04-03T00:16:51;2.70;;;1.20;;
14241;SDS011;7205;50.864;12.766;2023-04-03T00:19:19;4.20;;;1.07;;
14241;SDS011;7205;50.864;12.766;2023-04-03T00:21:46;2.80;;;1.43;;
14241;SDS011;7205;50.864;12.766;2023-04-03T00:24:12;6.50;;;1.70;;
14241;SDS011;7205;50.864;12.766;2023-04-03T00:26:39;3.83;;;1.57;;
14241;SDS011;7205;50.864;12.766;2023-04-03T00:29:06;2.13;;;0.90;;
14241;SDS011;7205;50.864;12.766;2023-04-03T00:31:33;3.53;;;1.40;;
14241;SDS011;7205;50.864;12.766;2023-04-03T00:34:00;1.97;;;1.40;;
14241;SDS011;7205;50.864;12.766;2023-04-03T00:36:28;2.83;;;1.33;;
14241;SDS011;7205;50.864;12.766;2023-04-03T00:38:55;0.93;;;0.80;;
14241;SDS011;7205;50.864;12.766;2023-04-03T00:41:22;1.17;;;0.97;;
14241;SDS011;7205;50.864;12.766;2023-04-03T00:43:49;3.70;;;1.20;;
14241;SDS011;7205;50.864;12.766;2023-04-03T00:46:16;2.00;;;1.17;;
14241;SDS011;7205;50.864;12.766;2023-04-03T00:48:43;3.20;;;1.20;;
14241;SDS011;7205;50.864;12.766;2023-04-03T00:51:13;2.70;;;1.37;;
14241;SDS011;7205;50.864;12.766;2023-04-03T00:53:46;1.97;;;1.13;;
14241;SDS011;7205;50.864;12.766;2023-04-03T00:56:17;3.03;;;1.23;;
14241;SDS011;7205;50.864;12.766;2023-04-03T00:58:48;2.70;;;1.57;;
14241;SDS011;7205;50.864;12.766;2023-04-03T01:01:18;4.73;;;1.33;;
14241;SDS011;7205;50.864;12.766;2023-04-03T01:03:49;3.27;;;0.80;;
14241;SDS011;7205;50.864;12.766;2023-04-03T01:06:17;3.50;;;1.30;;
14241;SDS011;7205;50.864;12.766;2023-04-03T01:08:51;1.73;;;1.03;;
14241;SDS011;7205;50.864;12.766;2023-04-03T01:11:18;3.40;;;1.47;;
14241;SDS011;7205;50.864;12.766;2023-04-03T01:13:46;5.50;;;1.43;;
14241;SDS011;7205;50.864;12.766;2023-04-03T01:16:14;3.63;;;1.50;;
14241;SDS011;7205;50.864;12.766;2023-04-03T01:18:41;1.60;;;1.23;;
14241;SDS011;7205;50.864;12.766;2023-04-03T01:24:32;2.90;;;1.00;;
14241;SDS011;7205;50.864;12.766;2023-04-03T01:27:04;6.00;;;1.07;;
14241;SDS011;7205;50.864;12.766;2023-04-03T01:29:35;2.97;;;1.00;;
14241;SDS011;7205;50.864;12.766;2023-04-03T01:32:05;2.30;;;1.40;;
14241;SDS011;7205;50.864;12.766;2023-04-03T01:34:32;1.97;;;1.20;;
14241;SDS011;7205;50.864;12.766;2023-04-03T01:37:00;3.40;;;1.17;;
14241;SDS011;7205;50.864;12.766;2023-04-03T01:39:27;2.20;;;1.80;;
14241;SDS011;7205;50.864;12.766;2023-04-03T01:41:54;3.33;;;1.30;;
14241;SDS011;7205;50.864;12.766;2023-04-03T01:44:28;3.03;;;1.80;;
14241;SDS011;7205;50.864;12.766;2023-04-03T01:46:55;9.53;;;1.20;;
14241;SDS011;7205;50.864;12.766;2023-04-03T01:49:24;3.30;;;1.10;;
14241;SDS011;7205;50.864;12.766;2023-04-03T01:51:51;2.27;;;1.20;;
14241;SDS011;7205;50.864;12.766;2023-04-03T01:54:18;2.30;;;1.27;;
14241;SDS011;7205;50.864;12.766;2023-04-03T01:56:48;3.03;;;1.20;;
14241;SDS011;7205;50.864;12.766;2023-04-03T01:59:15;3.47;;;1.50;;
14241;SDS011;7205;50.864;12.766;2023-04-03T02:01:43;2.33;;;1.10;;
14241;SDS011;7205;50.864;12.766;2023-04-03T02:04:11;4.60;;;1.10;;
14241;SDS011;7205;50.864;12.766;2023-04-03T02:06:40;5.50;;;1.10;;
14241;SDS011;7205;50.864;12.766;2023-04-03T02:09:07;3.23;;;1.13;;
14241;SDS011;7205;50.864;12.766;2023-04-03T02:11:34;4.00;;;1.47;;
14241;SDS011;7205;50.864;12.766;2023-04-03T02:14:01;1.10;;;0.97;;
14241;SDS011;7205;50.864;12.766;2023-04-03T02:16:28;6.87;;;1.30;;
14241;SDS011;7205;50.864;12.766;2023-04-03T02:18:56;3.77;;;1.27;;
14241;SDS011;7205;50.864;12.766;2023-04-03T02:21:23;1.80;;;1.37;;
14241;SDS011;7205;50.864;12.766;2023-04-03T02:23:51;1.43;;;1.10;;
14241;SDS011;7205;50.864;12.766;2023-04-03T02:26:18;3.13;;;1.10;;
14241;SDS011;7205;50.864;12.766;2023-04-03T02:28:45;3.60;;;1.13;;
14241;SDS011;7205;50.864;12.766;2023-04-03T02:31:12;3.57;;;1.40;;
14241;SDS011;7205;50.864;12.766;2023-04-03T02:33:40;3.03;;;1.50;;
14241;SDS011;7205;50.864;12.766;2023-04-03T02:36:09;2.13;;;1.60;;
14241;SDS011;7205;50.864;12.766;2023-04-03T02:38:38;1.40;;;1.27;;
14241;SDS011;7205;50.864;12.766;2023-04-03T02:41:07;3.10;;;1.30;;
14241;SDS011;7205;50.864;12.766;2023-04-03T02:43:36;1.77;;;1.30;;
14241;SDS011;7205;50.864;12.766;2023-04-03T02:46:04;3.40;;;1.30;;
14241;SDS011;7205;50.864;12.766;2023-04-03T02:48:31;3.40;;;1.00;;
14241;SDS011;7205;50.864;12.766;2023-04-03T02:50:59;4.00;;;1.20;;
14241;SDS011;7205;50.864;12.766;2023-04-03T02:53:26;2.60;;;1.30;;
14241;SDS011;7205;50.864;12.766;2023-04-03T02:55:53;3.47;;;1.20;;
14241;SDS011;7205;50.864;12.766;2023-04-03T02:58:21;2.03;;;1.10;;
14241;SDS011;7205;50.864;12.766;2023-04-03T03:00:49;2.27;;;1.33;;
14241;SDS011;7205;50.864;12.766;2023-04-03T03:03:16;1.97;;;1.20;;
14241;SDS011;7205;50.864;12.766;2023-04-03T03:05:43;2.47;;;1.17;;
14241;SDS011;7205;50.864;12.766;2023-04-03T03:08:10;3.40;;;1.20;;
14241;SDS011;7205;50.864;12.766;2023-04-03T03:10:37;4.23;;;1.30;;
14241;SDS011;7205;50.864;12.766;2023-04-03T03:13:04;2.30;;;1.10;;
14241;SDS011;7205;50.864;12.766;2023-04-03T03:15:32;3.87;;;1.30;;
14241;SDS011;7205;50.864;12.766;2023-04-03T03:18:01;3.27;;;1.23;;
14241;SDS011;7205;50.864;12.766;2023-04-03T03:20:28;3.73;;;1.30;;
14241;SDS011;7205;50.864;12.766;2023-04-03T03:22:57;3.33;;;1.43;;
14241;SDS011;7205;50.864;12.766;2023-04-03T03:25:24;2.57;;;1.10;;
14241;SDS011;7205;50.864;12.766;2023-04-03T03:27:51;2.40;;;1.27;;
14241;SDS011;7205;50.864;12.766;2023-04-03T03:30:18;2.17;;;1.03;;
14241;SDS011;7205;50.864;12.766;2023-04-03T03:32:46;1.57;;;1.27;;
14241;SDS011;7205;50.864;12.766;2023-04-03T03:35:13;4.73;;;1.53;;
14241;SDS011;7205;50.864;12.766;2023-04-03T03:37:40;3.33;;;1.73;;
14241;SDS011;7205;50.864;12.766;2023-04-03T03:40:08;4.97;;;1.33;;
14241;SDS011;7205;50.864;12.766;2023-04-03T03:42:36;2.20;;;1.50;;
14241;SDS011;7205;50.864;12.766;2023-04-03T03:45:04;2.80;;;1.23;;
14241;SDS011;7205;50.864;12.766;2023-04-03T03:47:31;5.57;;;1.50;;
14241;SDS011;7205;50.864;12.766;2023-04-03T03:50:00;4.07;;;2.00;;
14241;SDS011;7205;50.864;12.766;2023-04-03T03:52:26;3.03;;;1.57;;
14241;SDS011;7205;50.864;12.766;2023-04-03T03:54:55;2.63;;;1.43;;
14241;SDS011;7205;50.864;12.766;2023-04-03T03:57:22;2.90;;;1.60;;
14241;SDS011;7205;50.864;12.766;2023-04-03T03:59:49;2.23;;;1.40;;
14241;SDS011;7205;50.864;12.766;2023-04-03T04:02:17;2.70;;;1.27;;
14241;SDS011;7205;50.864;12.766;2023-04-03T04:04:44;4.07;;;1.40;;
14241;SDS011;7205;50.864;12.766;2023-04-03T04:07:13;4.37;;;2.00;;
14241;SDS011;7205;50.864;12.766;2023-04-03T04:09:40;5.10;;;1.90;;
14241;SDS011;7205;50.864;12.766;2023-04-03T04:12:08;4.00;;;1.60;;
14241;SDS011;7205;50.864;12.766;2023-04-03T04:14:36;7.60;;;1.77;;
14241;SDS011;7205;50.864;12.766;2023-04-03T04:17:05;6.43;;;1.80;;
14241;SDS011;7205;50.864;12.766;2023-04-03T04:19:32;4.27;;;1.57;;
14241;SDS011;7205;50.864;12.766;2023-04-03T04:21:59;3.20;;;1.60;;
14241;SDS011;7205;50.864;12.766;2023-04-03T04:24:28;6.33;;;1.83;;
14241;SDS011;7205;50.864;12.766;2023-04-03T04:26:56;2.23;;;1.50;;
14241;SDS011;7205;50.864;12.766;2023-04-03T04:29:23;4.07;;;1.53;;
14241;SDS011;7205;50.864;12.766;2023-04-03T04:31:51;2.57;;;1.73;;
14241;SDS011;7205;50.864;12.766;2023-04-03T04:34:19;1.97;;;1.33;;
14241;SDS011;7205;50.864;12.766;2023-04-03T04:36:46;5.27;;;1.63;;
14241;SDS011;7205;50.864;12.766;2023-04-03T04:39:13;5.17;;;2.00;;
14241;SDS011;7205;50.864;12.766;2023-04-03T04:41:42;3.40;;;2.33;;
14241;SDS011;7205;50.864;12.766;2023-04-03T04:44:08;4.30;;;2.00;;
14241;SDS011;7205;50.864;12.766;2023-04-03T04:46:36;5.00;;;1.60;;
14241;SDS011;7205;50.864;12.766;2023-04-03T04:49:04;3.47;;;1.63;;
14241;SDS011;7205;50.864;12.766;2023-04-03T04:51:32;5.17;;;2.00;;
14241;SDS011;7205;50.864;12.766;2023-04-03T04:53:59;2.37;;;1.70;;
14241;SDS011;7205;50.864;12.766;2023-04-03T04:56:26;8.50;;;1.70;;
14241;SDS011;7205;50.864;12.766;2023-04-03T04:58:56;4.60;;;1.60;;
14241;SDS011;7205;50.864;12.766;2023-04-03T05:01:25;3.20;;;1.73;;
14241;SDS011;7205;50.864;12.766;2023-04-03T05:04:04;4.57;;;1.87;;
14241;SDS011;7205;50.864;12.766;2023-04-03T05:06:31;5.37;;;2.13;;
14241;SDS011;7205;50.864;12.766;2023-04-03T05:08:59;5.00;;;1.70;;
14241;SDS011;7205;50.864;12.766;2023-04-03T05:11:28;7.83;;;2.10;;
14241;SDS011;7205;50.864;12.766;2023-04-03T05:13:56;3.20;;;1.50;;
14241;SDS011;7205;50.864;12.766;2023-04-03T05:16:24;6.20;;;2.00;;
14241;SDS011;7205;50.864;12.766;2023-04-03T05:18:52;5.50;;;2.00;;
14241;SDS011;7205;50.864;12.766;2023-04-03T05:21:21;7.93;;;2.10;;
14241;SDS011;7205;50.864;12.766;2023-04-03T05:23:51;3.40;;;1.73;;
14241;SDS011;7205;50.864;12.766;2023-04-03T05:26:19;4.83;;;2.33;;
14241;SDS011;7205;50.864;12.766;2023-04-03T05:28:48;6.33;;;1.83;;
14241;SDS011;7205;50.864;12.766;2023-04-03T05:31:16;4.57;;;1.90;;
14241;SDS011;7205;50.864;12.766;2023-04-03T05:33:43;7.73;;;1.70;;
14241;SDS011;7205;50.864;12.766;2023-04-03T05:36:15;4.03;;;1.93;;
14241;SDS011;7205;50.864;12.766;2023-04-03T05:38:45;6.30;;;2.10;;
14241;SDS011;7205;50.864;12.766;2023-04-03T05:41:13;4.53;;;1.90;;
14241;SDS011;7205;50.864;12.766;2023-04-03T05:43:43;3.80;;;1.80;;
14241;SDS011;7205;50.864;12.766;2023-04-03T05:46:10;4.03;;;1.50;;
14241;SDS011;7205;50.864;12.766;2023-04-03T05:48:43;4.20;;;1.67;;
14241;SDS011;7205;50.864;12.766;2023-04-03T05:51:15;4.53;;;1.83;;
14241;SDS011;7205;50.864;12.766;2023-04-03T05:53:45;2.77;;;1.50;;
14241;SDS011;7205;50.864;12.766;2023-04-03T05:56:13;3.57;;;1.93;;
14241;SDS011;7205;50.864;12.766;2023-04-03T05:58:40;4.47;;;1.27;;
14241;SDS011;7205;50.864;12.766;2023-04-03T06:01:07;5.23;;;1.93;;
14241;SDS011;7205;50.864;12.766;2023-04-03T06:03:35;2.43;;;1.03;;
14241;SDS011;7205;50.864;12.766;2023-04-03T06:06:04;3.97;;;1.50;;
14241;SDS011;7205;50.864;12.766;2023-04-03T06:08:34;4.60;;;1.60;;
14241;SDS011;7205;50.864;12.766;2023-04-03T06:11:01;5.37;;;1.50;;
14241;SDS011;7205;50.864;12.766;2023-04-03T06:13:28;2.37;;;1.20;;
14241;SDS011;7205;50.864;12.766;2023-04-03T06:15:55;3.83;;;1.30;;
14241;SDS011;7205;50.864;12.766;2023-04-03T06:18:22;4.03;;;1.40;;
14241;SDS011;7205;50.864;12.766;2023-04-03T06:20:49;2.83;;;1.30;;
14241;SDS011;7205;50.864;12.766;2023-04-03T06:23:18;3.00;;;1.60;;
14241;SDS011;7205;50.864;12.766;2023-04-03T06:25:45;3.83;;;1.50;;
14241;SDS011;7205;50.864;12.766;2023-04-03T06:28:12;3.77;;;1.50;;
14241;SDS011;7205;50.864;12.766;2023-04-03T06:30:39;3.60;;;1.70;;
14241;SDS011;7205;50.864;12.766;2023-04-03T06:33:06;2.83;;;1.50;;
14241;SDS011;7205;50.864;12.766;2023-04-03T06:35:33;3.60;;;1.70;;
14241;SDS011;7205;50.864;12.766;2023-04-03T06:38:00;4.67;;;1.50;;
14241;SDS011;7205;50.864;12.766;2023-04-03T06:40:30;2.60;;;1.40;;
14241;SDS011;7205;50.864;12.766;2023-04-03T06:42:57;3.60;;;1.60;;
14241;SDS011;7205;50.864;12.766;2023-04-03T06:45:24;3.73;;;1.60;;
14241;SDS011;7205;50.864;12.766;2023-04-03T06:47:51;4.53;;;1.73;;
14241;SDS011;7205;50.864;12.766;2023-04-03T06:50:18;4.97;;;1.70;;
14241;SDS011;7205;50.864;12.766;2023-04-03T06:52:45;2.23;;;1.37;;
14241;SDS011;7205;50.864;12.766;2023-04-03T06:55:12;5.87;;;1.70;;
14241;SDS011;7205;50.864;12.766;2023-04-03T06:57:40;3.77;;;1.50;;
14241;SDS011;7205;50.864;12.766;2023-04-03T07:00:07;3.47;;;1.80;;
14241;SDS011;7205;50.864;12.766;2023-04-03T07:02:35;4.87;;;1.80;;
14241;SDS011;7205;50.864;12.766;2023-04-03T07:05:02;2.40;;;1.93;;
14241;SDS011;7205;50.864;12.766;2023-04-03T07:07:31;6.47;;;1.80;;
14241;SDS011;7205;50.864;12.766;2023-04-03T07:09:59;3.23;;;1.70;;
14241;SDS011;7205;50.864;12.766;2023-04-03T07:12:26;3.27;;;2.27;;
14241;SDS011;7205;50.864;12.766;2023-04-03T07:14:54;5.90;;;2.70;;
14241;SDS011;7205;50.864;12.766;2023-04-03T07:17:21;2.73;;;1.87;;
14241;SDS011;7205;50.864;12.766;2023-04-03T07:19:48;4.80;;;1.90;;
14241;SDS011;7205;50.864;12.766;2023-04-03T07:22:16;2.93;;;2.33;;
14241;SDS011;7205;50.864;12.766;2023-04-03T07:24:43;2.63;;;2.13;;
14241;SDS011;7205;50.864;12.766;2023-04-03T07:27:10;2.93;;;2.43;;
14241;SDS011;7205;50.864;12.766;2023-04-03T07:29:38;3.60;;;2.10;;
14241;SDS011;7205;50.864;12.766;2023-04-03T07:32:09;3.07;;;2.53;;
14241;SDS011;7205;50.864;12.766;2023-04-03T07:34:36;4.90;;;2.40;;
14241;SDS011;7205;50.864;12.766;2023-04-03T07:37:12;5.30;;;2.10;;
14241;SDS011;7205;50.864;12.766;2023-04-03T07:45:52;3.77;;;2.10;;
14241;SDS011;7205;50.864;12.766;2023-04-03T07:48:24;4.43;;;2.10;;
14241;SDS011;7205;50.864;12.766;2023-04-03T07:50:52;6.33;;;2.30;;
14241;SDS011;7205;50.864;12.766;2023-04-03T07:53:23;4.43;;;2.00;;
14241;SDS011;7205;50.864;12.766;2023-04-03T07:56:00;2.17;;;1.50;;
14241;SDS011;7205;50.864;12.766;2023-04-03T07:58:28;7.03;;;1.90;;
14241;SDS011;7205;50.864;12.766;2023-04-03T08:01:13;2.27;;;1.47;;
14241;SDS011;7205;50.864;12.766;2023-04-03T08:03:56;3.30;;;1.97;;
14241;SDS011;7205;50.864;12.766;2023-04-03T08:06:52;2.23;;;2.03;;
14241;SDS011;7205;50.864;12.766;2023-04-03T08:09:39;3.37;;;2.00;;
14241;SDS011;7205;50.864;12.766;2023-04-03T08:12:13;3.63;;;1.87;;
14241;SDS011;7205;50.864;12.766;2023-04-03T08:17:57;2.63;;;1.77;;
14241;SDS011;7205;50.864;12.766;2023-04-03T08:23:57;3.87;;;2.10;;
14241;SDS011;7205;50.864;12.766;2023-04-03T08:26:24;2.10;;;1.80;;
14241;SDS011;7205;50.864;12.766;2023-04-03T08:29:13;5.10;;;2.00;;
14241;SDS011;7205;50.864;12.766;2023-04-03T08:32:38;3.10;;;1.90;;
14241;SDS011;7205;50.864;12.766;2023-04-03T08:35:09;2.50;;;1.60;;
14241;SDS011;7205;50.864;12.766;2023-04-03T08:37:36;3.63;;;1.87;;
14241;SDS011;7205;50.864;12.766;2023-04-03T08:40:06;2.43;;;1.57;;
14241;SDS011;7205;50.864;12.766;2023-04-03T08:42:45;4.40;;;1.60;;
14241;SDS011;7205;50.864;12.766;2023-04-03T08:45:34;1.73;;;1.40;;
14241;SDS011;7205;50.864;12.766;2023-04-03T08:51:50;3.77;;;2.03;;
14241;SDS011;7205;50.864;12.766;2023-04-03T08:54:43;2.17;;;1.50;;
14241;SDS011;7205;50.864;12.766;2023-04-03T08:57:17;3.13;;;1.30;;
14241;SDS011;7205;50.864;12.766;2023-04-03T08:59:46;3.03;;;1.60;;
14241;SDS011;7205;50.864;12.766;2023-04-03T09:02:18;3.77;;;1.63;;
14241;SDS011;7205;50.864;12.766;2023-04-03T09:04:51;3.40;;;1.67;;
14241;SDS011;7205;50.864;12.766;2023-04-03T09:07:20;2.23;;;1.50;;
14241;SDS011;7205;50.864;12.766;2023-04-03T09:09:52;4.63;;;1.60;;
14241;SDS011;7205;50.864;12.766;2023-04-03T09:12:21;1.67;;;1.23;;
14241;SDS011;7205;50.864;12.766;2023-04-03T09:14:54;3.83;;;1.83;;
14241;SDS011;7205;50.864;12.766;2023-04-03T09:17:31;3.20;;;1.40;;
14241;SDS011;7205;50.864;12.766;2023-04-03T09:20:10;1.83;;;1.20;;
14241;SDS011;7205;50.864;12.766;2023-04-03T09:22:43;3.87;;;1.80;;
14241;SDS011;7205;50.864;12.766;2023-04-03T09:25:12;1.80;;;1.30;;
14241;SDS011;7205;50.864;12.766;2023-04-03T09:27:43;2.27;;;1.30;;
14241;SDS011;7205;50.864;12.766;2023-04-03T09:30:12;1.20;;;1.07;;
14241;SDS011;7205;50.864;12.766;2023-04-03T09:32:41;2.10;;;1.10;;
14241;SDS011;7205;50.864;12.766;2023-04-03T09:35:17;1.53;;;1.00;;
14241;SDS011;7205;50.864;12.766;2023-04-03T09:37:47;5.40;;;1.63;;
14241;SDS011;7205;50.864;12.766;2023-04-03T09:40:29;2.27;;;1.00;;
14241;SDS011;7205;50.864;12.766;2023-04-03T09:43:01;2.17;;;1.33;;
14241;SDS011;7205;50.864;12.766;2023-04-03T09:45:30;4.53;;;1.30;;
14241;SDS011;7205;50.864;12.766;2023-04-03T09:48:05;2.20;;;1.30;;
14241;SDS011;7205;50.864;12.766;2023-04-03T09:50:33;1.83;;;1.20;;
14241;SDS011;7205;50.864;12.766;2023-04-03T09:53:04;3.30;;;1.13;;
14241;SDS011;7205;50.864;12.766;2023-04-03T09:55:34;2.23;;;0.80;;
14241;SDS011;7205;50.864;12.766;2023-04-03T09:58:24;3.57;;;1.30;;
14241;SDS011;7205;50.864;12.766;2023-04-03T10:00:56;1.60;;;1.00;;
14241;SDS011;7205;50.864;12.766;2023-04-03T10:03:25;1.57;;;1.10;;
14241;SDS011;7205;50.864;12.766;2023-04-03T10:05:55;1.30;;;1.20;;
14241;SDS011;7205;50.864;12.766;2023-04-03T10:08:24;2.13;;;1.30;;
14241;SDS011;7205;50.864;12.766;2023-04-03T10:11:10;1.70;;;1.00;;
14241;SDS011;7205;50.864;12.766;2023-04-03T10:13:56;1.70;;;1.30;;
14241;SDS011;7205;50.864;12.766;2023-04-03T10:16:26;2.17;;;1.10;;
14241;SDS011;7205;50.864;12.766;2023-04-03T10:21:59;1.83;;;1.17;;
14241;SDS011;7205;50.864;12.766;2023-04-03T10:24:35;2.83;;;1.20;;
14241;SDS011;7205;50.864;12.766;2023-04-03T10:27:10;1.37;;;0.83;;
14241;SDS011;7205;50.864;12.766;2023-04-03T10:29:46;1.80;;;1.10;;
14241;SDS011;7205;50.864;12.766;2023-04-03T10:32:23;2.20;;;1.07;;
14241;SDS011;7205;50.864;12.766;2023-04-03T10:35:02;3.03;;;1.40;;
14241;SDS011;7205;50.864;12.766;2023-04-03T10:37:42;1.80;;;1.23;;
14241;SDS011;7205;50.864;12.766;2023-04-03T10:40:23;3.27;;;1.20;;
14241;SDS011;7205;50.864;12.766;2023-04-03T10:42:59;2.93;;;1.20;;
14241;SDS011;7205;50.864;12.766;2023-04-03T10:45:37;2.57;;;1.30;;
14241;SDS011;7205;50.864;12.766;2023-04-03T10:48:18;2.00;;;1.10;;
14241;SDS011;7205;50.864;12.766;2023-04-03T10:51:00;4.00;;;1.37;;
14241;SDS011;7205;50.864;12.766;2023-04-03T10:53:37;2.70;;;1.17;;
14241;SDS011;7205;50.864;12.766;2023-04-03T10:56:12;2.33;;;1.07;;
14241;SDS011;7205;50.864;12.766;2023-04-03T10:58:45;1.77;;;0.97;;
14241;SDS011;7205;50.864;12.766;2023-04-03T11:01:19;3.43;;;1.23;;
14241;SDS011;7205;50.864;12.766;2023-04-03T11:03:50;1.50;;;1.17;;
14241;SDS011;7205;50.864;12.766;2023-04-03T11:06:19;4.53;;;1.27;;
14241;SDS011;7205;50.864;12.766;2023-04-03T11:08:51;1.60;;;0.90;;
14241;SDS011;7205;50.864;12.766;2023-04-03T11:11:24;1.20;;;0.97;;
14241;SDS011;7205;50.864;12.766;2023-04-03T11:13:54;2.80;;;0.93;;
14241;SDS011;7205;50.864;12.766;2023-04-03T11:16:27;1.63;;;1.03;;
14241;SDS011;7205;50.864;12.766;2023-04-03T11:18:59;1.83;;;0.97;;
14241;SDS011;7205;50.864;12.766;2023-04-03T11:21:31;1.57;;;1.03;;
14241;SDS011;7205;50.864;12.766;2023-04-03T11:24:02;0.97;;;0.60;;
14241;SDS011;7205;50.864;12.766;2023-04-03T11:26:37;1.63;;;0.73;;
14241;SDS011;7205;50.864;12.766;2023-04-03T11:29:08;1.23;;;0.70;;
14241;SDS011;7205;50.864;12.766;2023-04-03T11:31:44;2.50;;;1.07;;
14241;SDS011;7205;50.864;12.766;2023-04-03T11:34:30;1.53;;;0.90;;
14241;SDS011;7205;50.864;12.766;2023-04-03T11:37:05;0.73;;;0.70;;
14241;SDS011;7205;50.864;12.766;2023-04-03T11:39:38;1.50;;;1.20;;
14241;SDS011;7205;50.864;12.766;2023-04-03T11:42:14;2.17;;;1.00;;
14241;SDS011;7205;50.864;12.766;2023-04-03T11:44:42;2.97;;;0.90;;
14241;SDS011;7205;50.864;12.766;2023-04-03T11:47:42;3.03;;;0.73;;
14241;SDS011;7205;50.864;12.766;2023-04-03T11:50:14;1.57;;;0.60;;
14241;SDS011;7205;50.864;12.766;2023-04-03T11:52:59;1.70;;;0.70;;
14241;SDS011;7205;50.864;12.766;2023-04-03T11:55:44;0.63;;;0.60;;
14241;SDS011;7205;50.864;12.766;2023-04-03T11:58:22;2.40;;;0.80;;
14241;SDS011;7205;50.864;12.766;2023-04-03T12:00:51;0.83;;;0.60;;
14241;SDS011;7205;50.864;12.766;2023-04-03T12:09:33;1.50;;;0.80;;
14241;SDS011;7205;50.864;12.766;2023-04-03T12:12:27;2.43;;;0.70;;
14241;SDS011;7205;50.864;12.766;2023-04-03T12:21:07;1.07;;;0.70;;
14241;SDS011;7205;50.864;12.766;2023-04-03T12:23:35;1.50;;;1.03;;
14241;SDS011;7205;50.864;12.766;2023-04-03T12:26:22;1.60;;;0.70;;
14241;SDS011;7205;50.864;12.766;2023-04-03T12:28:52;0.60;;;0.53;;
14241;SDS011;7205;50.864;12.766;2023-04-03T12:31:20;1.73;;;1.10;;
14241;SDS011;7205;50.864;12.766;2023-04-03T12:36:50;1.53;;;0.87;;
14241;SDS011;7205;50.864;12.766;2023-04-03T12:39:35;1.90;;;0.77;;
14241;SDS011;7205;50.864;12.766;2023-04-03T12:42:32;3.17;;;1.00;;
14241;SDS011;7205;50.864;12.766;2023-04-03T12:45:12;2.00;;;0.70;;
14241;SDS011;7205;50.864;12.766;2023-04-03T12:47:45;0.97;;;0.80;;
14241;SDS011;7205;50.864;12.766;2023-04-03T12:50:18;3.23;;;0.77;;
14241;SDS011;7205;50.864;12.766;2023-04-03T12:52:54;1.87;;;0.83;;
14241;SDS011;7205;50.864;12.766;2023-04-03T12:55:26;1.27;;;0.70;;
14241;SDS011;7205;50.864;12.766;2023-04-03T12:57:56;1.57;;;0.87;;
14241;SDS011;7205;50.864;12.766;2023-04-03T13:00:30;3.33;;;0.73;;
14241;SDS011;7205;50.864;12.766;2023-04-03T13:02:59;0.90;;;0.60;;
14241;SDS011;7205;50.864;12.766;2023-04-03T13:05:28;0.97;;;0.60;;
14241;SDS011;7205;50.864;12.766;2023-04-03T13:07:58;2.40;;;0.93;;
14241;SDS011;7205;50.864;12.766;2023-04-03T13:10:29;3.67;;;1.13;;
14241;SDS011;7205;50.864;12.766;2023-04-03T13:12:56;0.90;;;0.70;;
14241;SDS011;7205;50.864;12.766;2023-04-03T13:15:26;1.80;;;0.93;;
14241;SDS011;7205;50.864;12.766;2023-04-03T13:17:55;1.17;;;0.80;;
14241;SDS011;7205;50.864;12.766;2023-04-03T13:20:24;3.33;;;1.30;;
14241;SDS011;7205;50.864;12.766;2023-04-03T13:22:54;1.63;;;0.77;;
14241;SDS011;7205;50.864;12.766;2023-04-03T13:25:25;2.57;;;0.60;;
14241;SDS011;7205;50.864;12.766;2023-04-03T13:27:56;1.60;;;1.00;;
14241;SDS011;7205;50.864;12.766;2023-04-03T13:30:26;0.77;;;0.77;;
14241;SDS011;7205;50.864;12.766;2023-04-03T13:32:55;1.53;;;1.10;;
14241;SDS011;7205;50.864;12.766;2023-04-03T13:35:28;1.10;;;1.00;;
14241;SDS011;7205;50.864;12.766;2023-04-03T13:37:58;1.40;;;0.87;;
14241;SDS011;7205;50.864;12.766;2023-04-03T13:40:26;1.77;;;0.60;;
14241;SDS011;7205;50.864;12.766;2023-04-03T13:43:03;1.60;;;0.90;;
14241;SDS011;7205;50.864;12.766;2023-04-03T13:45:33;0.93;;;0.67;;
14241;SDS011;7205;50.864;12.766;2023-04-03T13:48:08;2.30;;;0.70;;
14241;SDS011;7205;50.864;12.766;2023-04-03T13:50:51;2.57;;;0.90;;
14241;SDS011;7205;50.864;12.766;2023-04-03T13:53:20;1.40;;;0.77;;
14241;SDS011;7205;50.864;12.766;2023-04-03T13:55:58;1.27;;;0.73;;
14241;SDS011;7205;50.864;12.766;2023-04-03T13:58:33;0.83;;;0.73;;
14241;SDS011;7205;50.864;12.766;2023-04-03T14:01:07;1.37;;;1.00;;
14241;SDS011;7205;50.864;12.766;2023-04-03T14:03:41;2.13;;;0.80;;
14241;SDS011;7205;50.864;12.766;2023-04-03T14:06:10;1.40;;;0.60;;
14241;SDS011;7205;50.864;12.766;2023-04-03T14:08:39;2.73;;;1.00;;
14241;SDS011;7205;50.864;12.766;2023-04-03T14:11:08;1.27;;;0.80;;
14241;SDS011;7205;50.864;12.766;2023-04-03T14:13:43;1.70;;;1.10;;
14241;SDS011;7205;50.864;12.766;2023-04-03T14:16:12;1.20;;;0.90;;
14241;SDS011;7205;50.864;12.766;2023-04-03T14:18:40;0.87;;;0.87;;
14241;SDS011;7205;50.864;12.766;2023-04-03T14:21:06;2.80;;;0.83;;
14241;SDS011;7205;50.864;12.766;2023-04-03T14:23:33;2.77;;;1.07;;
14241;SDS011;7205;50.864;12.766;2023-04-03T14:26:00;1.70;;;0.67;;
14241;SDS011;7205;50.864;12.766;2023-04-03T14:28:27;1.13;;;0.70;;
14241;SDS011;7205;50.864;12.766;2023-04-03T14:30:55;2.10;;;0.90;;
14241;SDS011;7205;50.864;12.766;2023-04-03T14:33:22;1.43;;;0.87;;
14241;SDS011;7205;50.864;12.766;2023-04-03T14:35:51;4.03;;;1.17;;
14241;SDS011;7205;50.864;12.766;2023-04-03T14:38:23;1.97;;;1.03;;
14241;SDS011;7205;50.864;12.766;2023-04-03T14:40:51;4.47;;;1.07;;
14241;SDS011;7205;50.864;12.766;2023-04-03T14:43:19;1.07;;;0.77;;
14241;SDS011;7205;50.864;12.766;2023-04-03T14:45:46;1.17;;;1.00;;
14241;SDS011;7205;50.864;12.766;2023-04-03T14:48:17;0.83;;;0.80;;
14241;SDS011;7205;50.864;12.766;2023-04-03T14:50:45;2.27;;;1.10;;
14241;SDS011;7205;50.864;12.766;2023-04-03T14:53:13;1.10;;;0.80;;
14241;SDS011;7205;50.864;12.766;2023-04-03T14:55:42;2.17;;;0.70;;
14241;SDS011;7205;50.864;12.766;2023-04-03T14:58:12;2.03;;;0.97;;
14241;SDS011;7205;50.864;12.766;2023-04-03T15:00:40;3.67;;;1.03;;
14241;SDS011;7205;50.864;12.766;2023-04-03T15:03:09;1.33;;;0.80;;
14241;SDS011;7205;50.864;12.766;2023-04-03T15:05:41;3.50;;;0.87;;
14241;SDS011;7205;50.864;12.766;2023-04-03T15:08:10;1.10;;;0.70;;
14241;SDS011;7205;50.864;12.766;2023-04-03T15:10:45;1.60;;;1.00;;
14241;SDS011;7205;50.864;12.766;2023-04-03T15:13:14;1.80;;;1.10;;
14241;SDS011;7205;50.864;12.766;2023-04-03T15:15:41;3.37;;;1.00;;
14241;SDS011;7205;50.864;12.766;2023-04-03T15:18:10;1.80;;;1.70;;
14241;SDS011;7205;50.864;12.766;2023-04-03T15:20:45;1.77;;;1.53;;
14241;SDS011;7205;50.864;12.766;2023-04-03T15:23:13;6.70;;;1.00;;
14241;SDS011;7205;50.864;12.766;2023-04-03T15:25:41;2.30;;;1.10;;
14241;SDS011;7205;50.864;12.766;2023-04-03T15:28:09;5.23;;;1.00;;
14241;SDS011;7205;50.864;12.766;2023-04-03T15:30:44;1.73;;;0.73;;
14241;SDS011;7205;50.864;12.766;2023-04-03T15:33:10;1.20;;;0.80;;
14241;SDS011;7205;50.864;12.766;2023-04-03T15:35:37;1.30;;;0.90;;
14241;SDS011;7205;50.864;12.766;2023-04-03T15:38:05;1.40;;;1.30;;
14241;SDS011;7205;50.864;12.766;2023-04-03T15:40:32;4.13;;;1.10;;
14241;SDS011;7205;50.864;12.766;2023-04-03T15:42:59;1.73;;;0.77;;
14241;SDS011;7205;50.864;12.766;2023-04-03T15:45:27;2.07;;;1.10;;
14241;SDS011;7205;50.864;12.766;2023-04-03T15:47:56;2.37;;;0.90;;